createdAt,value
2022-10-14T00:02:39.980Z,1019.52
2022-10-14T00:07:47.202Z,1019.50
2022-10-14T00:12:54.492Z,1019.43
2022-10-14T00:18:01.674Z,1019.36
2022-10-14T00:23:08.902Z,1019.40
2022-10-14T00:28:16.249Z,1019.48
2022-10-14T00:33:23.385Z,1019.43
2022-10-14T00:38:30.618Z,1019.44
2022-10-14T00:43:37.839Z,1019.44
2022-10-14T00:48:44.988Z,1019.58
2022-10-14T00:53:52.228Z,1019.61
2022-10-14T00:58:59.489Z,1019.55
2022-10-14T01:04:06.689Z,1019.57
2022-10-14T01:09:13.947Z,1019.52
2022-10-14T01:14:21.176Z,1019.54
2022-10-14T01:19:28.451Z,1019.55
2022-10-14T01:24:35.667Z,1019.52
2022-10-14T01:29:42.918Z,1019.50
2022-10-14T01:34:50.122Z,1019.45
2022-10-14T01:39:57.342Z,1019.32
2022-10-14T01:45:04.609Z,1019.36
2022-10-14T01:50:11.758Z,1019.28
2022-10-14T01:55:21.947Z,1019.25
2022-10-14T02:00:29.179Z,1019.21
2022-10-14T02:05:36.359Z,1019.16
2022-10-14T02:10:43.668Z,1019.15
2022-10-14T02:15:51.128Z,1019.14
2022-10-14T02:21:01.365Z,1019.19
2022-10-14T02:26:08.573Z,1019.06
2022-10-14T02:31:15.756Z,1019.06
2022-10-14T02:36:22.934Z,1019.01
2022-10-14T02:41:30.161Z,1019.01
2022-10-14T02:46:37.358Z,1019.02
2022-10-14T02:51:44.591Z,1019.00
2022-10-14T02:56:51.900Z,1019.03
2022-10-14T03:01:59.414Z,1019.05
2022-10-14T03:07:06.475Z,1019.06
2022-10-14T03:12:13.690Z,1019.00
2022-10-14T03:17:20.922Z,1018.88
2022-10-14T03:22:28.143Z,1018.83
2022-10-14T03:27:35.387Z,1018.77
2022-10-14T03:32:42.644Z,1018.61
2022-10-14T03:37:49.822Z,1018.61
2022-10-14T03:42:57.020Z,1018.51
2022-10-14T03:48:04.265Z,1018.45
2022-10-14T03:53:11.441Z,1018.47
2022-10-14T03:58:18.675Z,1018.47
2022-10-14T04:03:25.947Z,1018.42
2022-10-14T04:08:33.162Z,1018.36
2022-10-14T04:13:40.358Z,1018.28
2022-10-14T04:18:47.565Z,1018.26
2022-10-14T04:23:56.379Z,1018.21
2022-10-14T04:29:03.706Z,1018.19
2022-10-14T04:34:13.498Z,1018.18
2022-10-14T04:39:20.697Z,1018.09
2022-10-14T04:44:27.937Z,1017.98
2022-10-14T04:49:35.209Z,1017.94
2022-10-14T04:54:42.398Z,1017.92
2022-10-14T04:59:49.599Z,1017.93
2022-10-14T05:04:56.832Z,1017.81
2022-10-14T05:10:04.005Z,1017.76
2022-10-14T05:15:11.217Z,1017.70
2022-10-14T05:20:18.465Z,1017.64
2022-10-14T05:25:28.817Z,1017.64
2022-10-14T05:30:36.013Z,1017.56
2022-10-14T05:35:59.394Z,1017.57
2022-10-14T05:40:50.637Z,1017.54
2022-10-14T05:45:57.937Z,1017.47
2022-10-14T05:51:05.144Z,1017.44
2022-10-14T05:56:12.345Z,1017.42
2022-10-14T06:01:19.540Z,1017.40
2022-10-14T06:06:29.128Z,1017.37
2022-10-14T06:11:34.042Z,1017.30
2022-10-14T06:16:41.283Z,1017.24
2022-10-14T06:21:48.534Z,1017.22
2022-10-14T06:26:55.693Z,1017.22
2022-10-14T06:32:02.892Z,1017.17
2022-10-14T06:37:10.115Z,1017.24
2022-10-14T06:42:17.330Z,1017.35
2022-10-14T06:47:24.506Z,1017.43
2022-10-14T06:52:31.733Z,1017.30
2022-10-14T06:57:39.546Z,1017.32
2022-10-14T07:02:46.796Z,1017.30
2022-10-14T07:07:54.131Z,1017.44
2022-10-14T07:13:01.281Z,1017.28
2022-10-14T07:18:08.567Z,1017.44
2022-10-14T07:23:15.815Z,1017.45
2022-10-14T07:28:23.115Z,1017.30
2022-10-14T07:33:30.340Z,1017.28
2022-10-14T07:38:37.560Z,1017.41
2022-10-14T07:43:44.759Z,1017.43
2022-10-14T07:48:57.047Z,1017.48
2022-10-14T07:53:59.201Z,1017.42
2022-10-14T07:59:06.350Z,1017.43
2022-10-14T08:04:13.593Z,1017.48
2022-10-14T08:09:20.904Z,1017.56
2022-10-14T08:14:27.999Z,1017.59
2022-10-14T08:19:35.192Z,1017.46
2022-10-14T08:24:42.432Z,1017.47
2022-10-14T08:29:49.603Z,1017.53
2022-10-14T08:34:56.831Z,1017.61
2022-10-14T08:40:04.040Z,1017.47
2022-10-14T08:45:11.243Z,1017.39
2022-10-14T08:50:18.439Z,1017.38
2022-10-14T08:55:25.806Z,1017.37
2022-10-14T09:00:32.889Z,1017.38
2022-10-14T09:05:40.087Z,1017.41
2022-10-14T09:10:47.359Z,1017.34
2022-10-14T09:15:54.830Z,1017.31
2022-10-14T09:21:03.432Z,1017.33
2022-10-14T09:26:10.690Z,1017.43
2022-10-14T09:31:17.902Z,1017.36
2022-10-14T09:36:25.225Z,1017.40
2022-10-14T09:41:32.473Z,1017.44
2022-10-14T09:46:39.639Z,1017.40
2022-10-14T09:51:46.936Z,1017.38
2022-10-14T09:56:54.264Z,1017.39
2022-10-14T10:02:01.431Z,1017.40
2022-10-14T10:07:08.652Z,1017.43
2022-10-14T10:12:16.028Z,1017.39
2022-10-14T10:17:23.355Z,1017.42
2022-10-14T10:22:30.251Z,1017.43
2022-10-14T10:27:38.415Z,1017.38
2022-10-14T10:32:45.584Z,1017.27
2022-10-14T10:37:52.841Z,1017.27
2022-10-14T10:43:00.053Z,1017.16
2022-10-14T10:48:07.320Z,1017.12
2022-10-14T10:53:14.526Z,1017.13
2022-10-14T10:58:21.743Z,1017.08
2022-10-14T11:03:29.029Z,1017.01
2022-10-14T11:08:36.225Z,1016.98
2022-10-14T11:13:43.458Z,1017.01
2022-10-14T11:18:50.656Z,1016.99
2022-10-14T11:23:57.861Z,1016.90
2022-10-14T11:29:05.304Z,1016.82
2022-10-14T11:34:12.338Z,1016.78
2022-10-14T11:39:19.567Z,1016.57
2022-10-14T11:44:26.852Z,1016.56
2022-10-14T11:49:34.016Z,1016.48
2022-10-14T11:54:41.222Z,1016.40
2022-10-14T11:59:48.430Z,1016.35
2022-10-14T12:04:55.595Z,1016.30
2022-10-14T12:10:02.799Z,1016.28
2022-10-14T12:15:09.997Z,1016.13
2022-10-14T12:20:17.141Z,1016.08
2022-10-14T12:25:24.363Z,1015.97
2022-10-14T12:30:31.604Z,1016.03
2022-10-14T12:35:38.720Z,1015.95
2022-10-14T12:40:45.959Z,1015.85
2022-10-14T12:45:53.120Z,1015.93
2022-10-14T12:51:00.322Z,1015.74
2022-10-14T12:56:07.486Z,1015.87
2022-10-14T13:01:14.811Z,1015.79
2022-10-14T13:06:21.950Z,1015.82
2022-10-14T13:11:29.168Z,1015.81
2022-10-14T13:16:36.371Z,1015.80
2022-10-14T13:21:43.570Z,1015.73
2022-10-14T13:26:50.781Z,1015.66
2022-10-14T13:31:58.075Z,1015.65
2022-10-14T13:37:05.311Z,1015.55
2022-10-14T13:42:12.469Z,1015.55
2022-10-14T13:47:20.105Z,1015.46
2022-10-14T13:52:26.932Z,1015.50
2022-10-14T13:57:59.954Z,1015.50
2022-10-14T14:02:41.561Z,1015.50
2022-10-14T14:12:55.917Z,1015.54
2022-10-14T14:18:06.375Z,1015.54
2022-10-14T14:23:13.297Z,1015.47
2022-10-14T14:28:20.848Z,1015.67
2022-10-14T14:33:28.158Z,1015.42
2022-10-14T14:38:37.305Z,1015.44
2022-10-14T14:43:53.321Z,1015.48
2022-10-14T14:48:54.251Z,1015.43
2022-10-14T14:53:59.016Z,1015.55
2022-10-14T14:59:06.258Z,1015.60
2022-10-14T15:04:14.749Z,1015.69
2022-10-14T15:09:20.701Z,1015.78
2022-10-14T15:14:27.895Z,1015.69
2022-10-14T15:19:37.436Z,1015.72
2022-10-14T15:24:42.268Z,1015.71
2022-10-14T15:29:49.497Z,1015.61
2022-10-14T15:34:56.697Z,1015.65
2022-10-14T15:40:03.890Z,1015.64
2022-10-14T15:45:11.121Z,1015.70
2022-10-14T15:50:18.449Z,1015.67
2022-10-14T15:55:25.610Z,1015.60
2022-10-14T16:00:32.835Z,1015.57
2022-10-14T16:05:40.074Z,1015.63
2022-10-14T16:10:47.236Z,1015.73
2022-10-14T16:15:54.451Z,1015.66
2022-10-14T16:21:01.715Z,1015.61
2022-10-14T16:26:08.890Z,1015.64
2022-10-14T16:31:16.139Z,1015.61
2022-10-14T16:36:23.397Z,1015.68
2022-10-14T16:41:30.589Z,1015.68
2022-10-14T16:46:37.770Z,1015.70
2022-10-14T16:51:45.119Z,1015.75
2022-10-14T16:56:52.280Z,1015.71
2022-10-14T17:01:59.494Z,1015.76
2022-10-14T17:07:06.740Z,1015.78
2022-10-14T17:12:14.463Z,1015.71
2022-10-14T17:17:21.113Z,1015.55
2022-10-14T17:22:28.474Z,1015.40
2022-10-14T17:27:35.926Z,1015.36
2022-10-14T17:32:43.286Z,1015.39
2022-10-14T17:37:50.975Z,1015.33
2022-10-14T17:42:59.587Z,1015.34
2022-10-14T17:48:07.203Z,1015.40
2022-10-14T17:53:14.546Z,1015.33
2022-10-14T17:58:21.766Z,1015.30
2022-10-14T18:03:30.380Z,1015.37
2022-10-14T18:08:37.589Z,1015.33
2022-10-14T18:13:44.779Z,1015.32
2022-10-14T18:18:52.010Z,1015.32
2022-10-14T18:23:59.611Z,1015.22
2022-10-14T18:29:07.011Z,1015.11
2022-10-14T18:34:14.320Z,1015.06
2022-10-14T18:39:21.601Z,1015.01
2022-10-14T18:44:28.728Z,1014.99
2022-10-14T18:49:39.907Z,1015.06
2022-10-14T18:54:43.317Z,1015.00
2022-10-14T18:59:50.645Z,1014.94
2022-10-14T19:04:57.886Z,1014.93
2022-10-14T19:10:05.263Z,1014.87
2022-10-14T19:15:12.622Z,1014.89
2022-10-14T19:20:20.370Z,1014.88
2022-10-14T19:25:28.006Z,1014.86
2022-10-14T19:30:35.602Z,1014.81
2022-10-14T19:35:43.087Z,1014.75
2022-10-14T19:40:50.446Z,1014.86
2022-10-14T19:45:57.927Z,1014.90
2022-10-14T19:51:07.118Z,1014.84
2022-10-14T19:56:12.878Z,1014.87
2022-10-14T20:01:20.594Z,1014.88
2022-10-14T20:06:27.878Z,1014.80
2022-10-14T20:11:35.182Z,1014.79
2022-10-14T20:16:42.460Z,1014.84
2022-10-14T20:21:49.722Z,1014.79
2022-10-14T20:26:57.012Z,1014.83
2022-10-14T20:32:04.308Z,1014.76
2022-10-14T20:37:11.577Z,1014.68
2022-10-14T20:42:18.815Z,1014.59
2022-10-14T20:47:26.118Z,1014.66
2022-10-14T20:52:33.381Z,1014.66
2022-10-14T20:57:40.767Z,1014.71
2022-10-14T21:02:48.055Z,1014.55
2022-10-14T21:07:55.283Z,1014.54
2022-10-14T21:13:02.521Z,1014.40
2022-10-14T21:18:09.756Z,1014.27
2022-10-14T21:23:16.993Z,1014.38
2022-10-14T21:28:24.278Z,1014.47
2022-10-14T21:33:31.381Z,1014.19
2022-10-14T21:38:38.686Z,1014.18
2022-10-14T21:43:46.576Z,1014.16
2022-10-14T21:48:53.964Z,1014.13
2022-10-14T21:54:01.271Z,1013.99
2022-10-14T21:59:08.609Z,1013.93
2022-10-14T22:04:15.832Z,1013.91
2022-10-14T22:09:23.077Z,1013.79
2022-10-14T22:14:30.351Z,1013.75
2022-10-14T22:19:37.619Z,1013.76
2022-10-14T22:24:44.902Z,1013.64
2022-10-14T22:29:52.142Z,1013.62
2022-10-14T22:34:59.394Z,1013.64
2022-10-14T22:40:06.616Z,1013.55
2022-10-14T22:45:13.831Z,1013.57
2022-10-14T22:50:21.132Z,1013.50
2022-10-14T22:55:28.472Z,1013.52
2022-10-14T23:00:35.807Z,1013.55
2022-10-14T23:05:42.938Z,1013.57
2022-10-14T23:10:50.177Z,1013.47
2022-10-14T23:15:57.426Z,1013.40
2022-10-14T23:21:04.560Z,1013.41
2022-10-14T23:26:11.814Z,1013.42
2022-10-14T23:31:19.074Z,1013.28
2022-10-14T23:36:26.215Z,1013.37
2022-10-14T23:41:33.448Z,1013.40
2022-10-14T23:46:40.735Z,1013.33
2022-10-14T23:51:47.886Z,1013.47
2022-10-14T23:56:55.057Z,1013.33
